S-y Atmosphere — ZCGY6 — position and weather

sailwx.info

Track history (hours):
 
Tides and Currents Weather Stations Pressure Air Temp Water Temp Dewpoint Dewpoint Depression Visibility Wind Speed Wind Dir Waves Ship Positions

S-y Atmosphere

Last reported at 2016-May-20 13:06 UTC. Time now 2016-May-27 00:23 UTC.
Position N 40°41' E 003°08'.

Length 53 m; draft 4 m.

Type: Sailing vessel. MMSI: 319726000.

Date/timePositionNaut miles runAvg speedWind from/ knotsBaromVisibWave heightAir tempDewpointWater temp
2016-May-20 13:06N 40°41' E 003°08'610.6
2016-May-20 12:33N 40°36' E 003°04'1010.3
2016-May-20 11:33N 40°27' E 002°57'1010.1
2016-May-20 10:33N 40°18' E 002°51'1010.3
2016-May-20 09:33N 40°09' E 002°44'1111.1
2016-May-20 08:33N 39°60' E 002°37'1111.5
2016-May-20 07:33N 39°50' E 002°29'22 7.4
2016-May-20 04:33N 39°28' E 002°33'6 5.6
2016-May-20 03:33N 39°33' E 002°37'0 0.0
2016-May-20 02:33N 39°33' E 002°37'0 0.0
2016-May-20 01:33N 39°33' E 002°37'0 0.0
2016-May-20 00:33N 39°33' E 002°37'0 0.0
2016-May-19 23:33N 39°33' E 002°37'0 0.0
2016-May-19 22:33N 39°33' E 002°37'0 0.0
2016-May-19 21:33N 39°33' E 002°37'0 0.0
2016-May-19 20:33N 39°33' E 002°37'0 0.0
2016-May-19 19:34N 39°33' E 002°37'0 0.0
2016-May-19 18:33N 39°33' E 002°37'0 0.0
2016-May-19 17:32N 39°33' E 002°37'0 0.0
2016-May-19 16:33N 39°33' E 002°37'0 0.0
2016-May-19 15:33N 39°33' E 002°37'0 0.0
2016-May-19 10:33N 39°33' E 002°37'0 0.0
2016-May-19 09:33N 39°33' E 002°37'0 0.0
2016-May-19 08:33N 39°33' E 002°37'0 0.0
2016-May-19 07:33N 39°33' E 002°37'0 0.0
2016-May-19 06:33N 39°33' E 002°37'0 0.0
2016-May-19 05:33N 39°33' E 002°37'0 0.0
2016-May-19 04:33N 39°33' E 002°37'0 0.0
2016-May-19 03:33N 39°33' E 002°37'0 0.0
2016-May-19 02:33N 39°33' E 002°37'0 0.0
2016-May-19 01:33N 39°33' E 002°37'0 0.0
2016-May-19 00:33N 39°33' E 002°37'0 0.0
2016-May-18 23:33N 39°33' E 002°37'0 0.0
2016-May-18 22:33N 39°33' E 002°37'0 0.0
2016-May-18 21:33N 39°33' E 002°37'0 0.0
2016-May-18 20:33N 39°33' E 002°37'0 0.0
2016-May-18 19:33N 39°33' E 002°37'0 0.0
2016-May-18 18:33N 39°33' E 002°37'0 0.0
2016-May-18 17:33N 39°33' E 002°37'0 0.0
2016-May-18 16:33N 39°33' E 002°37'0 0.0
2016-May-18 15:33N 39°33' E 002°37'0 0.0
2016-May-18 14:32N 39°33' E 002°37'0 0.0
2016-May-18 13:33N 39°33' E 002°37'0 0.0
2016-May-18 12:33N 39°33' E 002°37'0 0.0
2016-May-18 11:33N 39°33' E 002°37'0 0.0
2016-May-18 10:33N 39°33' E 002°37'0 0.0
2016-May-18 09:33N 39°33' E 002°37'0 0.0
2016-May-18 08:33N 39°33' E 002°37'0 0.0
2016-May-18 07:33N 39°33' E 002°37'0 0.0
2016-May-18 06:33N 39°33' E 002°37'6 6.2
2016-May-18 05:33N 39°27' E 002°34'7 6.7
2016-May-18 04:29N 39°24' E 002°26'7 7.1
2016-May-18 03:33N 39°23' E 002°17'7 7.2
2016-May-18 02:31N 39°21' E 002°08'  
2016-May-12 22:32N 37°39' W 024°36'1111.5
2016-May-12 21:34N 37°40' W 024°50'1111.2
2016-May-12 20:33N 37°41' W 025°04'1211.7
2016-May-12 19:33N 37°41' W 025°19'1211.4
2016-May-12 18:31N 37°42' W 025°34'5 5.7
2016-May-12 17:34N 37°44' W 025°40'0 0.0
2016-May-12 16:34N 37°44' W 025°40'0 0.0
2016-May-12 15:34N 37°44' W 025°40'0 0.0
2016-May-12 14:33N 37°44' W 025°40'0 0.0
2016-May-12 13:34N 37°44' W 025°40'0 0.0
2016-May-12 12:33N 37°44' W 025°40'0 0.0
2016-May-12 11:33N 37°44' W 025°40'0 0.0
2016-May-12 10:34N 37°44' W 025°40'0 0.0
2016-May-12 09:33N 37°44' W 025°40'0 0.0
2016-May-12 08:33N 37°44' W 025°40'0 0.0
2016-May-12 07:33N 37°44' W 025°40'0 0.0
2016-May-12 06:34N 37°44' W 025°40'0 0.0
2016-May-12 05:33N 37°44' W 025°40'0 0.0
2016-May-12 04:34N 37°44' W 025°40'0 0.0
2016-May-12 03:33N 37°44' W 025°40'0 0.0
2016-May-12 02:33N 37°44' W 025°40'0 0.0
2016-May-12 01:33N 37°44' W 025°40'0 0.0
2016-May-12 00:33N 37°44' W 025°40'0 0.0
2016-May-11 23:33N 37°44' W 025°40'0 0.0
2016-May-11 22:33N 37°44' W 025°40'0 0.0
2016-May-11 21:34N 37°44' W 025°40'0 0.0
2016-May-11 20:33N 37°44' W 025°40'0 0.1
2016-May-11 19:33N 37°44' W 025°40'1 1.4
2016-May-11 18:33N 37°43' W 025°39'4 3.9
2016-May-11 17:34N 37°43' W 025°44'1211.7
2016-May-11 16:33N 37°41' W 025°58'1211.6
2016-May-11 15:33N 37°40' W 026°13'1212.4
2016-May-11 14:33N 37°39' W 026°28'  
Track history (hours):
 
Tides and Currents Weather Stations Pressure Air Temp Water Temp Dewpoint Dewpoint Depression Visibility Wind Speed Wind Dir Waves Ship Positions

S-y Atmosphere

Last reported at 2016-May-20 13:06 UTC. Time now 2016-May-27 00:23 UTC.
Position N 40°41' E 003°08'.

Length 53 m; draft 4 m.

Type: Sailing vessel. MMSI: 319726000.

Date/timePositionNaut miles runAvg speedWind from/ knotsBaromVisibWave heightAir tempDewpointWater temp
2016-May-20 13:06N 40°41' E 003°08'610.6
2016-May-20 12:33N 40°36' E 003°04'1010.3
2016-May-20 11:33N 40°27' E 002°57'1010.1
2016-May-20 10:33N 40°18' E 002°51'1010.3
2016-May-20 09:33N 40°09' E 002°44'1111.1
2016-May-20 08:33N 39°60' E 002°37'1111.5
2016-May-20 07:33N 39°50' E 002°29'22 7.4
2016-May-20 04:33N 39°28' E 002°33'6 5.6
2016-May-20 03:33N 39°33' E 002°37'0 0.0
2016-May-20 02:33N 39°33' E 002°37'0 0.0
2016-May-20 01:33N 39°33' E 002°37'0 0.0
2016-May-20 00:33N 39°33' E 002°37'0 0.0
2016-May-19 23:33N 39°33' E 002°37'0 0.0
2016-May-19 22:33N 39°33' E 002°37'0 0.0
2016-May-19 21:33N 39°33' E 002°37'0 0.0
2016-May-19 20:33N 39°33' E 002°37'0 0.0
2016-May-19 19:34N 39°33' E 002°37'0 0.0
2016-May-19 18:33N 39°33' E 002°37'0 0.0
2016-May-19 17:32N 39°33' E 002°37'0 0.0
2016-May-19 16:33N 39°33' E 002°37'0 0.0
2016-May-19 15:33N 39°33' E 002°37'0 0.0
2016-May-19 10:33N 39°33' E 002°37'0 0.0
2016-May-19 09:33N 39°33' E 002°37'0 0.0
2016-May-19 08:33N 39°33' E 002°37'0 0.0
2016-May-19 07:33N 39°33' E 002°37'0 0.0
2016-May-19 06:33N 39°33' E 002°37'0 0.0
2016-May-19 05:33N 39°33' E 002°37'0 0.0
2016-May-19 04:33N 39°33' E 002°37'0 0.0
2016-May-19 03:33N 39°33' E 002°37'0 0.0
2016-May-19 02:33N 39°33' E 002°37'0 0.0
2016-May-19 01:33N 39°33' E 002°37'0 0.0
2016-May-19 00:33N 39°33' E 002°37'0 0.0
2016-May-18 23:33N 39°33' E 002°37'0 0.0
2016-May-18 22:33N 39°33' E 002°37'0 0.0
2016-May-18 21:33N 39°33' E 002°37'0 0.0
2016-May-18 20:33N 39°33' E 002°37'0 0.0
2016-May-18 19:33N 39°33' E 002°37'0 0.0
2016-May-18 18:33N 39°33' E 002°37'0 0.0
2016-May-18 17:33N 39°33' E 002°37'0 0.0
2016-May-18 16:33N 39°33' E 002°37'0 0.0
2016-May-18 15:33N 39°33' E 002°37'0 0.0
2016-May-18 14:32N 39°33' E 002°37'0 0.0
2016-May-18 13:33N 39°33' E 002°37'0 0.0
2016-May-18 12:33N 39°33' E 002°37'0 0.0
2016-May-18 11:33N 39°33' E 002°37'0 0.0
2016-May-18 10:33N 39°33' E 002°37'0 0.0
2016-May-18 09:33N 39°33' E 002°37'0 0.0
2016-May-18 08:33N 39°33' E 002°37'0 0.0
2016-May-18 07:33N 39°33' E 002°37'0 0.0
2016-May-18 06:33N 39°33' E 002°37'6 6.2
2016-May-18 05:33N 39°27' E 002°34'7 6.7
2016-May-18 04:29N 39°24' E 002°26'7 7.1
2016-May-18 03:33N 39°23' E 002°17'7 7.2
2016-May-18 02:31N 39°21' E 002°08'  
2016-May-12 22:32N 37°39' W 024°36'1111.5
2016-May-12 21:34N 37°40' W 024°50'1111.2
2016-May-12 20:33N 37°41' W 025°04'1211.7
2016-May-12 19:33N 37°41' W 025°19'1211.4
2016-May-12 18:31N 37°42' W 025°34'5 5.7
2016-May-12 17:34N 37°44' W 025°40'0 0.0
2016-May-12 16:34N 37°44' W 025°40'0 0.0
2016-May-12 15:34N 37°44' W 025°40'0 0.0
2016-May-12 14:33N 37°44' W 025°40'0 0.0
2016-May-12 13:34N 37°44' W 025°40'0 0.0
2016-May-12 12:33N 37°44' W 025°40'0 0.0
2016-May-12 11:33N 37°44' W 025°40'0 0.0
2016-May-12 10:34N 37°44' W 025°40'0 0.0
2016-May-12 09:33N 37°44' W 025°40'0 0.0
2016-May-12 08:33N 37°44' W 025°40'0 0.0
2016-May-12 07:33N 37°44' W 025°40'0 0.0
2016-May-12 06:34N 37°44' W 025°40'0 0.0
2016-May-12 05:33N 37°44' W 025°40'0 0.0
2016-May-12 04:34N 37°44' W 025°40'0 0.0
2016-May-12 03:33N 37°44' W 025°40'0 0.0
2016-May-12 02:33N 37°44' W 025°40'0 0.0
2016-May-12 01:33N 37°44' W 025°40'0 0.0
2016-May-12 00:33N 37°44' W 025°40'0 0.0
2016-May-11 23:33N 37°44' W 025°40'0 0.0
2016-May-11 22:33N 37°44' W 025°40'0 0.0
2016-May-11 21:34N 37°44' W 025°40'0 0.0
2016-May-11 20:33N 37°44' W 025°40'0 0.1
2016-May-11 19:33N 37°44' W 025°40'1 1.4
2016-May-11 18:33N 37°43' W 025°39'4 3.9
2016-May-11 17:34N 37°43' W 025°44'1211.7
2016-May-11 16:33N 37°41' W 025°58'1211.6
2016-May-11 15:33N 37°40' W 026°13'1212.4
2016-May-11 14:33N 37°39' W 026°28'  

Dump ship's entire track history